Terminal Aerodrome Forecast
Issued by NWS Wilmington, NC

Home | Current Version | Previous Version | Text Only | Print | Product List | Glossary On
Versions: 1 2 3 4 5 6 7 8 9 10 11 12 13 14 15 16
000
FTUS42 KILM 312329
TAFILM
TAF
KILM 312329Z 0100/0124 06009KT P6SM VCSH SCT015 OVC025
      TEMPO 0100/0104 3SM RA BR BKN009
     FM010500 VRB02KT 4SM BR SCT005 SCT020
      TEMPO 0109/0111 2SM BR BKN003
     FM011400 33005KT P6SM SCT015 BKN040
     FM011600 18006KT P6SM FEW050 SCT250=

USA.gov is the U.S. government's official web portal to all federal, state and local government web resources and services.